createdAt,value
2019-03-22T00:00:44.477Z,97.22
2019-03-22T00:01:44.496Z,97.22
2019-03-22T00:02:44.439Z,97.33
2019-03-22T00:03:44.434Z,97.53
2019-03-22T00:04:44.426Z,98.00
2019-03-22T00:05:44.407Z,98.11
2019-03-22T00:06:44.401Z,97.59
2019-03-22T00:07:44.392Z,98.00
2019-03-22T00:08:44.376Z,97.28
2019-03-22T00:09:44.376Z,97.59
2019-03-22T00:10:44.348Z,97.69
2019-03-22T00:11:44.468Z,97.80
2019-03-22T00:12:44.325Z,97.28
2019-03-22T00:13:44.323Z,97.17
2019-03-22T00:14:44.305Z,97.12
2019-03-22T00:15:44.293Z,97.02
2019-03-22T00:16:44.282Z,97.95
2019-03-22T00:17:44.281Z,97.53
2019-03-22T00:18:44.258Z,97.64
2019-03-22T00:19:44.253Z,97.74
2019-03-22T00:20:44.240Z,97.80
2019-03-22T00:21:44.231Z,98.00
2019-03-22T00:22:44.219Z,97.96
2019-03-22T00:23:44.218Z,97.86
2019-03-22T00:24:44.221Z,97.96
2019-03-22T00:25:44.184Z,97.80
2019-03-22T00:26:44.179Z,97.80
2019-03-22T00:27:44.159Z,97.96
2019-03-22T00:28:44.196Z,97.86
2019-03-22T00:29:44.143Z,97.65
2019-03-22T00:30:44.136Z,98.17
2019-03-22T00:31:44.119Z,98.32
2019-03-22T00:32:44.105Z,97.65
2019-03-22T00:33:44.099Z,97.69
2019-03-22T00:34:44.113Z,98.27
2019-03-22T00:35:44.077Z,98.52
2019-03-22T00:36:44.061Z,98.32
2019-03-22T00:37:44.050Z,98.52
2019-03-22T00:38:44.045Z,99.04
2019-03-22T00:39:44.039Z,99.35
2019-03-22T00:40:44.018Z,99.04
2019-03-22T00:41:44.007Z,98.83
2019-03-22T00:42:44.011Z,98.94
2019-03-22T00:43:43.988Z,98.94
2019-03-22T00:44:43.983Z,98.63
2019-03-22T00:45:43.968Z,98.94
2019-03-22T00:46:43.957Z,98.90
2019-03-22T00:47:43.968Z,98.69
2019-03-22T00:48:43.935Z,99.21
2019-03-22T00:49:43.929Z,99.62
2019-03-22T00:50:43.913Z,99.26
2019-03-22T00:51:43.905Z,99.26
2019-03-22T00:52:43.887Z,99.01
2019-03-22T00:53:43.888Z,99.32
2019-03-22T00:54:43.872Z,99.22
2019-03-22T00:55:43.865Z,99.52
2019-03-22T00:56:43.855Z,99.17
2019-03-22T00:57:43.835Z,99.17
2019-03-22T00:58:43.835Z,99.69
2019-03-22T00:59:43.817Z,99.64
2019-03-22T01:00:43.859Z,99.64
2019-03-22T01:01:43.794Z,99.64
2019-03-22T01:02:43.777Z,99.64
2019-03-22T01:03:43.772Z,99.64
2019-03-22T01:04:43.763Z,99.64
2019-03-22T01:05:43.754Z,99.54
2019-03-22T01:06:43.751Z,99.13
2019-03-22T01:07:43.732Z,99.23
2019-03-22T01:08:43.718Z,99.43
2019-03-22T01:09:43.702Z,99.43
2019-03-22T01:10:43.712Z,99.43
2019-03-22T01:11:43.697Z,99.43
2019-03-22T01:12:43.669Z,99.43
2019-03-22T01:13:43.656Z,99.33
2019-03-22T01:14:43.648Z,99.33
2019-03-22T01:15:43.636Z,99.02
2019-03-22T01:16:43.642Z,99.33
2019-03-22T01:17:43.618Z,99.33
2019-03-22T01:18:43.602Z,99.02
2019-03-22T01:19:43.596Z,99.13
2019-03-22T01:20:43.585Z,99.02
2019-03-22T01:21:43.610Z,99.13
2019-03-22T01:22:43.570Z,99.02
2019-03-22T01:23:43.557Z,99.43
2019-03-22T01:24:43.542Z,99.64
2019-03-22T01:25:43.528Z,99.48
2019-03-22T01:26:43.517Z,99.33
2019-03-22T01:27:43.524Z,99.13
2019-03-22T01:28:43.506Z,99.54
2019-03-22T01:29:43.482Z,99.49
2019-03-22T01:30:43.472Z,99.60
2019-03-22T01:31:43.479Z,99.60
2019-03-22T01:32:43.459Z,99.70
2019-03-22T01:33:43.439Z,99.70
2019-03-22T01:34:43.433Z,99.49
2019-03-22T01:35:43.423Z,99.49
2019-03-22T01:36:43.430Z,99.18
2019-03-22T01:37:43.412Z,99.29
2019-03-22T01:38:43.406Z,99.29
2019-03-22T01:39:43.377Z,99.34
2019-03-22T01:40:43.382Z,99.55
2019-03-22T01:41:43.350Z,99.55
2019-03-22T01:42:43.339Z,99.65
2019-03-22T01:43:43.451Z,99.86
2019-03-22T01:44:43.322Z,99.99
2019-03-22T01:45:43.315Z,99.99
2019-03-22T01:46:43.303Z,99.99
2019-03-22T01:47:43.290Z,99.99
2019-03-22T01:48:43.279Z,99.96
2019-03-22T01:49:43.281Z,99.86
2019-03-22T01:50:43.257Z,99.99
2019-03-22T01:51:43.251Z,99.99
2019-03-22T01:52:43.232Z,99.65
2019-03-22T01:53:43.215Z,99.99
2019-03-22T01:54:43.213Z,99.99
2019-03-22T01:55:43.196Z,99.96
2019-03-22T01:56:43.191Z,99.65
2019-03-22T01:57:52.416Z,99.65
2019-03-22T01:58:44.156Z,99.76
2019-03-22T01:59:43.205Z,99.96
2019-03-22T02:00:43.143Z,99.76
2019-03-22T02:01:43.131Z,99.55
2019-03-22T02:02:43.120Z,99.61
2019-03-22T02:03:43.101Z,99.96
2019-03-22T02:04:43.091Z,99.76
2019-03-22T02:05:43.193Z,99.76
2019-03-22T02:06:43.070Z,99.76
2019-03-22T02:07:43.069Z,99.55
2019-03-22T02:08:43.051Z,99.96
2019-03-22T02:09:43.038Z,99.55
2019-03-22T02:10:43.024Z,99.99
2019-03-22T02:11:43.025Z,99.99
2019-03-22T02:12:43.013Z,99.61
2019-03-22T02:13:42.994Z,99.82
2019-03-22T02:14:42.978Z,99.99
2019-03-22T02:15:42.971Z,99.99
2019-03-22T02:16:42.966Z,99.99
2019-03-22T02:17:42.951Z,99.99
2019-03-22T02:18:42.934Z,99.99
2019-03-22T02:19:42.943Z,99.87
2019-03-22T02:20:42.910Z,99.99
2019-03-22T02:21:42.933Z,99.99
2019-03-22T02:22:42.913Z,99.98
2019-03-22T02:23:42.882Z,99.99
2019-03-22T02:24:42.874Z,99.99
2019-03-22T02:25:42.856Z,99.99
2019-03-22T02:26:42.850Z,99.99
2019-03-22T02:27:42.845Z,99.99
2019-03-22T02:28:42.828Z,99.99
2019-03-22T02:29:44.480Z,99.99
2019-03-22T02:30:42.820Z,99.99
2019-03-22T02:31:42.799Z,99.99
2019-03-22T02:32:42.816Z,99.99
2019-03-22T02:33:42.770Z,99.99
2019-03-22T02:34:42.778Z,99.99
2019-03-22T02:35:42.768Z,99.99
2019-03-22T02:36:42.741Z,99.99
2019-03-22T02:37:42.723Z,99.99
2019-03-22T02:38:42.722Z,99.99
2019-03-22T02:39:42.805Z,99.99
2019-03-22T02:40:42.747Z,99.99
2019-03-22T02:41:42.687Z,99.93
2019-03-22T02:42:42.668Z,99.99
2019-03-22T02:43:42.678Z,99.99
2019-03-22T02:44:42.646Z,99.99
2019-03-22T02:45:42.643Z,99.99
2019-03-22T02:46:42.632Z,99.99
2019-03-22T02:47:42.657Z,99.99
2019-03-22T02:48:42.633Z,99.99
2019-03-22T02:49:42.590Z,99.99
2019-03-22T02:50:42.579Z,99.99
2019-03-22T02:51:42.570Z,99.99
2019-03-22T02:52:42.563Z,99.99
2019-03-22T02:53:42.561Z,99.99
2019-03-22T02:54:42.535Z,99.99
2019-03-22T02:55:42.562Z,99.99
2019-03-22T02:56:42.521Z,99.99
2019-03-22T02:57:42.515Z,99.99
2019-03-22T02:58:42.598Z,99.99
2019-03-22T02:59:42.485Z,99.99
2019-03-22T03:00:42.479Z,99.99
2019-03-22T03:01:42.464Z,99.99
2019-03-22T03:02:42.451Z,99.99
2019-03-22T03:03:42.438Z,99.99
2019-03-22T03:04:42.449Z,99.99
2019-03-22T03:05:42.422Z,99.99
2019-03-22T03:06:42.412Z,99.99
2019-03-22T03:07:42.390Z,99.99
2019-03-22T03:08:42.383Z,99.99
2019-03-22T03:09:42.373Z,99.99
2019-03-22T03:10:42.382Z,99.99
2019-03-22T03:11:42.377Z,99.99
2019-03-22T03:12:42.346Z,99.99
2019-03-22T03:13:42.331Z,99.99
2019-03-22T03:14:42.319Z,99.99
2019-03-22T03:15:42.317Z,99.99
2019-03-22T03:16:42.315Z,99.99
2019-03-22T03:17:42.291Z,99.99
2019-03-22T03:18:42.279Z,99.99
2019-03-22T03:19:42.261Z,99.99
2019-03-22T03:20:42.259Z,99.99
2019-03-22T03:21:42.253Z,99.99
2019-03-22T03:22:42.240Z,99.99
2019-03-22T03:23:42.219Z,99.99
2019-03-22T03:24:42.212Z,99.99
2019-03-22T03:25:42.231Z,99.99
2019-03-22T03:26:42.193Z,99.99
2019-03-22T03:27:42.182Z,99.99
2019-03-22T03:28:42.159Z,99.99
2019-03-22T03:29:42.153Z,99.99
2019-03-22T03:30:42.150Z,99.99
2019-03-22T03:31:42.128Z,99.99
2019-03-22T03:32:42.117Z,99.99
2019-03-22T03:33:42.106Z,99.99
2019-03-22T03:34:42.103Z,99.99
2019-03-22T03:35:42.087Z,99.88
2019-03-22T03:36:42.108Z,99.99
2019-03-22T03:37:42.067Z,99.99
2019-03-22T03:38:42.057Z,99.84
2019-03-22T03:39:42.043Z,99.84
2019-03-22T03:40:42.029Z,99.99
2019-03-22T03:41:42.030Z,99.84
2019-03-22T03:42:42.053Z,99.94
2019-03-22T03:43:42.001Z,99.79
2019-03-22T03:44:41.984Z,99.90
2019-03-22T03:45:41.990Z,99.99
2019-03-22T03:46:42.043Z,99.95
2019-03-22T03:47:41.971Z,99.99
2019-03-22T03:48:41.966Z,99.95
2019-03-22T03:49:41.930Z,99.95
2019-03-22T03:50:41.930Z,99.99
2019-03-22T03:51:41.926Z,99.95
2019-03-22T03:52:42.030Z,99.99
2019-03-22T03:53:41.898Z,99.95
2019-03-22T03:54:41.872Z,99.99
2019-03-22T03:55:41.869Z,99.54
2019-03-22T03:56:41.850Z,99.23
2019-03-22T03:57:41.980Z,99.74
2019-03-22T03:58:52.310Z,99.95
2019-03-22T03:59:42.981Z,99.54
2019-03-22T04:00:41.811Z,99.23
2019-03-22T04:01:41.936Z,99.39
2019-03-22T04:02:41.805Z,99.29
2019-03-22T04:03:41.819Z,99.29
2019-03-22T04:04:41.767Z,99.23
2019-03-22T04:05:41.762Z,99.13
2019-03-22T04:06:41.745Z,99.18
2019-03-22T04:07:41.733Z,99.18
2019-03-22T04:08:41.731Z,98.67
2019-03-22T04:09:41.718Z,98.32
2019-03-22T04:10:41.713Z,98.00
2019-03-22T04:11:41.693Z,98.11
2019-03-22T04:12:41.681Z,97.60
2019-03-22T04:13:41.670Z,96.67
2019-03-22T04:14:41.668Z,97.08
2019-03-22T04:15:41.647Z,97.18
2019-03-22T04:16:41.627Z,96.97
2019-03-22T04:17:41.628Z,96.15
2019-03-22T04:18:41.606Z,96.67
2019-03-22T04:19:41.608Z,96.11
2019-03-22T04:20:41.604Z,95.39
2019-03-22T04:21:41.573Z,95.70
2019-03-22T04:22:41.561Z,96.00
2019-03-22T04:23:41.569Z,96.06
2019-03-22T04:24:41.560Z,95.49
2019-03-22T04:25:41.538Z,94.87
2019-03-22T04:26:41.518Z,94.87
2019-03-22T04:27:41.516Z,95.39
2019-03-22T04:28:41.502Z,95.18
2019-03-22T04:29:41.490Z,95.18
2019-03-22T04:30:41.503Z,95.49
2019-03-22T04:31:41.473Z,96.42
2019-03-22T04:32:41.459Z,95.96
2019-03-22T04:33:41.495Z,96.06
2019-03-22T04:34:41.427Z,95.96
2019-03-22T04:35:41.467Z,95.45
2019-03-22T04:36:41.418Z,95.55
2019-03-22T04:37:41.399Z,95.80
2019-03-22T04:38:41.392Z,96.06
2019-03-22T04:39:41.382Z,95.70
2019-03-22T04:40:41.370Z,96.17
2019-03-22T04:41:41.424Z,95.80
2019-03-22T04:42:41.344Z,95.08
2019-03-22T04:43:41.333Z,94.67
2019-03-22T04:44:41.316Z,94.67
2019-03-22T04:45:41.315Z,95.39
2019-03-22T04:46:41.342Z,95.08
2019-03-22T04:47:41.283Z,95.39
2019-03-22T04:48:41.273Z,95.34
2019-03-22T04:49:41.264Z,95.70
2019-03-22T04:50:41.255Z,95.96
2019-03-22T04:51:41.245Z,95.59
2019-03-22T04:52:41.243Z,95.80
2019-03-22T04:53:41.228Z,94.42
2019-03-22T04:54:41.211Z,93.90
2019-03-22T04:55:41.201Z,94.11
2019-03-22T04:56:41.188Z,93.70
2019-03-22T04:57:41.180Z,93.90
2019-03-22T04:58:41.207Z,93.80
2019-03-22T04:59:41.164Z,94.11
2019-03-22T05:00:41.149Z,93.70
2019-03-22T05:01:41.128Z,93.49
2019-03-22T05:02:41.125Z,93.18
2019-03-22T05:03:41.121Z,93.39
2019-03-22T05:04:41.095Z,93.70
2019-03-22T05:05:41.085Z,93.70
2019-03-22T05:06:41.072Z,93.59
2019-03-22T05:07:41.074Z,93.70
2019-03-22T05:08:41.064Z,93.18
2019-03-22T05:09:41.056Z,93.80
2019-03-22T05:10:41.034Z,92.77
2019-03-22T05:11:41.016Z,93.49
2019-03-22T05:12:41.043Z,93.29
2019-03-22T05:13:40.993Z,93.49
2019-03-22T05:14:40.991Z,93.18
2019-03-22T05:15:40.972Z,93.29
2019-03-22T05:16:40.965Z,93.49
2019-03-22T05:17:40.951Z,93.39
2019-03-22T05:18:40.952Z,93.59
2019-03-22T05:19:40.929Z,93.80
2019-03-22T05:20:40.916Z,93.59
2019-03-22T05:21:40.910Z,93.39
2019-03-22T05:22:40.911Z,93.70
2019-03-22T05:23:40.925Z,93.70
2019-03-22T05:24:40.875Z,93.24
2019-03-22T05:25:40.867Z,93.35
2019-03-22T05:26:40.850Z,93.65
2019-03-22T05:27:40.844Z,93.44
2019-03-22T05:28:40.858Z,93.24
2019-03-22T05:29:40.828Z,93.04
2019-03-22T05:30:40.814Z,93.35
2019-03-22T05:31:40.793Z,92.73
2019-03-22T05:32:40.783Z,92.83
2019-03-22T05:33:40.778Z,92.32
2019-03-22T05:34:40.783Z,92.42
2019-03-22T05:35:40.755Z,92.63
2019-03-22T05:36:40.740Z,93.14
2019-03-22T05:37:40.732Z,92.52
2019-03-22T05:38:40.715Z,92.21
2019-03-22T05:39:40.749Z,92.21
2019-03-22T05:40:40.695Z,92.21
2019-03-22T05:41:40.691Z,92.21
2019-03-22T05:42:40.674Z,92.21
2019-03-22T05:43:40.669Z,92.63
2019-03-22T05:44:40.654Z,92.21
2019-03-22T05:45:40.644Z,92.63
2019-03-22T05:46:40.642Z,91.97
2019-03-22T05:47:40.616Z,91.86
2019-03-22T05:48:40.610Z,91.76
2019-03-22T05:49:40.593Z,92.27
2019-03-22T05:50:40.585Z,91.14
2019-03-22T05:51:40.586Z,91.04
2019-03-22T05:52:40.568Z,91.55
2019-03-22T05:53:40.556Z,91.04
2019-03-22T05:54:40.542Z,91.04
2019-03-22T05:55:40.569Z,90.94
2019-03-22T05:56:40.517Z,90.94
2019-03-22T05:57:40.510Z,91.35
2019-03-22T05:58:40.500Z,90.53
2019-03-22T05:59:42.849Z,90.73
2019-03-22T06:00:40.472Z,90.94
2019-03-22T06:01:40.464Z,91.35
2019-03-22T06:02:40.464Z,91.35
2019-03-22T06:03:40.445Z,91.14
2019-03-22T06:04:40.430Z,91.66
2019-03-22T06:05:40.420Z,91.66
2019-03-22T06:06:40.415Z,91.76
2019-03-22T06:07:40.402Z,91.04
2019-03-22T06:08:40.390Z,91.35
2019-03-22T06:09:40.407Z,91.55
2019-03-22T06:10:40.383Z,91.25
2019-03-22T06:11:40.389Z,91.25
2019-03-22T06:12:40.339Z,91.25
2019-03-22T06:13:40.336Z,91.86
2019-03-22T06:14:40.329Z,91.14
2019-03-22T06:15:40.309Z,91.25
2019-03-22T06:16:40.305Z,91.35
2019-03-22T06:17:51.282Z,91.00
2019-03-22T06:18:41.275Z,91.10
2019-03-22T06:19:40.267Z,91.20
2019-03-22T06:20:40.256Z,90.48
2019-03-22T06:21:40.256Z,90.48
2019-03-22T06:22:40.270Z,90.48
2019-03-22T06:23:40.220Z,90.59
2019-03-22T06:24:40.213Z,90.69
2019-03-22T06:25:40.204Z,90.59
2019-03-22T06:26:40.186Z,90.73
2019-03-22T06:27:40.198Z,90.63
2019-03-22T06:28:40.165Z,90.53
2019-03-22T06:29:40.161Z,90.53
2019-03-22T06:30:40.146Z,91.04
2019-03-22T06:31:40.138Z,90.59
2019-03-22T06:32:40.119Z,90.59
2019-03-22T06:33:40.144Z,91.31
2019-03-22T06:34:40.101Z,90.80
2019-03-22T06:35:40.094Z,90.69
2019-03-22T06:36:40.080Z,90.69
2019-03-22T06:37:40.063Z,90.38
2019-03-22T06:38:40.057Z,90.08
2019-03-22T06:39:40.051Z,89.93
2019-03-22T06:40:40.030Z,90.08
2019-03-22T06:41:40.024Z,89.97
2019-03-22T06:42:40.009Z,90.08
2019-03-22T06:43:40.009Z,89.93
2019-03-22T06:44:39.997Z,89.97
2019-03-22T06:45:39.988Z,90.18
2019-03-22T06:46:39.968Z,90.14
2019-03-22T06:47:39.955Z,90.44
2019-03-22T06:48:39.950Z,89.72
2019-03-22T06:49:39.971Z,90.24
2019-03-22T06:50:39.929Z,90.14
2019-03-22T06:51:39.912Z,89.93
2019-03-22T06:52:39.908Z,89.87
2019-03-22T06:53:39.893Z,89.97
2019-03-22T06:54:39.885Z,90.08
2019-03-22T06:55:39.876Z,90.18
2019-03-22T06:56:39.857Z,90.08
2019-03-22T06:57:39.845Z,90.08
2019-03-22T06:58:39.848Z,90.18
2019-03-22T06:59:39.834Z,90.08
2019-03-22T07:00:39.840Z,89.72
2019-03-22T07:01:39.808Z,89.87
2019-03-22T07:02:39.796Z,90.18
2019-03-22T07:03:39.786Z,90.08
2019-03-22T07:04:39.776Z,89.97
2019-03-22T07:05:39.761Z,89.93
2019-03-22T07:06:39.752Z,89.72
2019-03-22T07:07:39.741Z,90.03
2019-03-22T07:08:39.733Z,89.21
2019-03-22T07:09:39.721Z,89.21
2019-03-22T07:10:39.712Z,89.21
2019-03-22T07:11:41.817Z,88.70
2019-03-22T07:12:39.690Z,88.49
2019-03-22T07:13:39.687Z,88.80
2019-03-22T07:14:39.669Z,88.70
2019-03-22T07:15:39.655Z,88.49
2019-03-22T07:16:39.654Z,88.56
2019-03-22T07:17:39.641Z,88.49
2019-03-22T07:18:39.624Z,88.56
2019-03-22T07:19:39.608Z,88.56
2019-03-22T07:20:39.596Z,88.45
2019-03-22T07:21:39.616Z,88.35
2019-03-22T07:22:39.581Z,88.21
2019-03-22T07:23:39.572Z,88.45
2019-03-22T07:24:39.558Z,88.56
2019-03-22T07:25:39.544Z,88.00
2019-03-22T07:26:39.539Z,87.90
2019-03-22T07:27:39.538Z,87.49
2019-03-22T07:28:39.518Z,87.70
2019-03-22T07:29:39.502Z,87.79
2019-03-22T07:30:39.490Z,86.87
2019-03-22T07:31:39.485Z,86.25
2019-03-22T07:32:39.486Z,86.30
2019-03-22T07:33:39.463Z,86.40
2019-03-22T07:34:39.472Z,86.50
2019-03-22T07:35:39.434Z,86.50
2019-03-22T07:36:39.426Z,87.22
2019-03-22T07:37:39.428Z,88.04
2019-03-22T07:38:39.402Z,87.43
2019-03-22T07:39:39.398Z,87.02
2019-03-22T07:40:39.394Z,86.50
2019-03-22T07:41:39.369Z,86.60
2019-03-22T07:42:39.382Z,86.40
2019-03-22T07:43:39.355Z,87.02
2019-03-22T07:44:39.349Z,86.57
2019-03-22T07:45:39.329Z,86.25
2019-03-22T07:46:39.321Z,86.30
2019-03-22T07:47:39.310Z,86.50
2019-03-22T07:48:39.295Z,86.60
2019-03-22T07:49:39.286Z,86.30
2019-03-22T07:50:39.279Z,86.81
2019-03-22T07:51:39.265Z,86.87
2019-03-22T07:52:39.249Z,87.08
2019-03-22T07:53:39.249Z,86.46
2019-03-22T07:54:39.342Z,86.77
2019-03-22T07:55:39.222Z,86.98
2019-03-22T07:56:39.207Z,85.85
2019-03-22T07:57:39.221Z,85.60
2019-03-22T07:58:39.185Z,85.23
2019-03-22T07:59:39.189Z,85.64
2019-03-22T08:00:39.168Z,85.95
2019-03-22T08:01:39.195Z,85.80
2019-03-22T08:02:39.145Z,85.44
2019-03-22T08:03:39.134Z,85.44
2019-03-22T08:04:39.122Z,86.05
2019-03-22T08:05:50.549Z,85.44
2019-03-22T08:06:40.126Z,85.64
2019-03-22T08:07:39.088Z,86.15
2019-03-22T08:08:39.080Z,85.85
2019-03-22T08:09:39.084Z,85.50
2019-03-22T08:10:39.082Z,85.30
2019-03-22T08:11:39.045Z,85.30
2019-03-22T08:12:39.031Z,84.78
2019-03-22T08:13:39.014Z,85.30
2019-03-22T08:14:39.010Z,84.78
2019-03-22T08:15:39.136Z,85.19
2019-03-22T08:16:39.011Z,85.03
2019-03-22T08:17:38.988Z,85.03
2019-03-22T08:18:38.965Z,85.54
2019-03-22T08:19:38.951Z,85.95
2019-03-22T08:20:39.103Z,85.85
2019-03-22T08:21:38.934Z,85.64
2019-03-22T08:22:38.929Z,85.85
2019-03-22T08:23:38.903Z,86.05
2019-03-22T08:24:38.892Z,85.33
2019-03-22T08:25:38.914Z,85.64
2019-03-22T08:26:38.908Z,85.64
2019-03-22T08:27:38.853Z,85.54
2019-03-22T08:28:38.874Z,85.95
2019-03-22T08:29:38.833Z,86.01
2019-03-22T08:30:43.298Z,85.50
2019-03-22T08:31:38.814Z,85.71
2019-03-22T08:32:38.803Z,85.30
2019-03-22T08:33:38.845Z,84.88
2019-03-22T08:34:38.776Z,83.96
2019-03-22T08:35:38.774Z,84.68
2019-03-22T08:36:38.789Z,84.37
2019-03-22T08:37:38.790Z,84.88
2019-03-22T08:38:38.731Z,85.03
2019-03-22T08:39:38.726Z,85.50
2019-03-22T08:40:38.751Z,85.23
2019-03-22T08:41:38.691Z,85.64
2019-03-22T08:42:38.712Z,85.33
2019-03-22T08:43:38.721Z,85.23
2019-03-22T08:44:38.674Z,85.13
2019-03-22T08:45:38.730Z,85.54
2019-03-22T08:46:38.659Z,85.54
2019-03-22T08:47:38.671Z,84.82
2019-03-22T08:48:38.630Z,85.33
2019-03-22T08:49:38.752Z,85.19
2019-03-22T08:50:38.613Z,84.68
2019-03-22T08:51:38.621Z,85.60
2019-03-22T08:52:38.605Z,84.78
2019-03-22T08:53:38.580Z,85.30
2019-03-22T08:54:38.617Z,85.09
2019-03-22T08:55:38.540Z,84.78
2019-03-22T08:56:38.526Z,85.54
2019-03-22T08:57:38.518Z,86.05
2019-03-22T08:58:38.498Z,86.36
2019-03-22T08:59:38.519Z,85.85
2019-03-22T09:00:39.818Z,85.54
2019-03-22T09:01:38.465Z,85.85
2019-03-22T09:02:38.473Z,85.89
2019-03-22T09:03:38.445Z,86.57
2019-03-22T09:04:38.439Z,86.71
2019-03-22T09:05:38.458Z,86.40
2019-03-22T09:06:38.415Z,86.50
2019-03-22T09:07:38.404Z,86.40
2019-03-22T09:08:38.393Z,86.60
2019-03-22T09:09:41.635Z,86.57
2019-03-22T09:10:38.443Z,85.95
2019-03-22T09:11:38.397Z,86.15
2019-03-22T09:12:38.347Z,85.95
2019-03-22T09:13:38.327Z,86.05
2019-03-22T09:14:38.326Z,85.80
2019-03-22T09:15:41.942Z,85.50
2019-03-22T09:16:38.305Z,85.30
2019-03-22T09:17:38.283Z,85.50
2019-03-22T09:18:38.270Z,85.19
2019-03-22T09:19:38.292Z,85.39
2019-03-22T09:20:38.263Z,85.60
2019-03-22T09:21:38.260Z,85.50
2019-03-22T09:22:38.235Z,85.39
2019-03-22T09:23:38.237Z,85.44
2019-03-22T09:24:39.268Z,85.44
2019-03-22T09:25:38.207Z,85.50
2019-03-22T09:26:47.651Z,84.78
2019-03-22T09:27:39.189Z,85.54
2019-03-22T09:28:38.190Z,84.88
2019-03-22T09:29:38.185Z,85.50
2019-03-22T09:30:38.176Z,85.30
2019-03-22T09:31:38.178Z,85.19
2019-03-22T09:32:38.221Z,84.78
2019-03-22T09:33:38.102Z,84.92
2019-03-22T09:34:38.129Z,85.03
2019-03-22T09:35:38.090Z,85.54
2019-03-22T09:36:38.110Z,85.38
2019-03-22T09:37:38.084Z,86.15
2019-03-22T09:38:38.096Z,86.15
2019-03-22T09:39:38.087Z,85.85
2019-03-22T09:40:38.027Z,85.44
2019-03-22T09:41:38.051Z,85.80
2019-03-22T09:42:38.021Z,85.50
2019-03-22T09:43:37.985Z,84.64
2019-03-22T09:44:43.137Z,84.03
2019-03-22T09:45:38.965Z,84.37
2019-03-22T09:46:38.011Z,84.95
2019-03-22T09:47:37.972Z,84.27
2019-03-22T09:48:37.936Z,84.37
2019-03-22T09:49:37.921Z,84.47
2019-03-22T09:50:37.910Z,84.78
2019-03-22T09:51:37.923Z,84.88
2019-03-22T09:52:38.017Z,84.37
2019-03-22T09:53:37.917Z,84.47
2019-03-22T09:54:37.904Z,85.23
2019-03-22T09:55:37.876Z,85.33
2019-03-22T09:56:47.043Z,85.50
2019-03-22T09:57:38.824Z,85.39
2019-03-22T09:58:37.882Z,84.88
2019-03-22T09:59:37.807Z,84.44
2019-03-22T10:00:37.845Z,83.82
2019-03-22T10:01:37.785Z,84.03
2019-03-22T10:02:37.775Z,83.72
2019-03-22T10:03:37.798Z,84.23
2019-03-22T10:04:37.773Z,83.61
2019-03-22T10:05:37.736Z,83.92
2019-03-22T10:06:37.735Z,83.82
2019-03-22T10:07:37.754Z,84.03
2019-03-22T10:08:37.726Z,83.61
2019-03-22T10:09:37.703Z,82.79
2019-03-22T10:10:37.689Z,83.92
2019-03-22T10:11:37.689Z,83.72
2019-03-22T10:12:37.659Z,83.92
2019-03-22T10:13:37.649Z,84.23
2019-03-22T10:14:37.647Z,84.03
2019-03-22T10:15:37.649Z,83.31
2019-03-22T10:16:37.613Z,83.51
2019-03-22T10:17:37.686Z,83.92
2019-03-22T10:18:37.596Z,83.10
2019-03-22T10:19:37.618Z,83.10
2019-03-22T10:20:37.603Z,83.00
2019-03-22T10:21:37.569Z,83.00
2019-03-22T10:22:37.555Z,83.17
2019-03-22T10:23:37.609Z,83.20
2019-03-22T10:24:37.607Z,82.69
2019-03-22T10:25:37.510Z,82.69
2019-03-22T10:26:37.506Z,83.31
2019-03-22T10:27:37.753Z,83.76
2019-03-22T10:28:37.523Z,83.55
2019-03-22T10:29:37.479Z,84.06
2019-03-22T10:30:37.531Z,84.47
2019-03-22T10:31:37.954Z,83.92
2019-03-22T10:32:37.448Z,83.96
2019-03-22T10:33:37.480Z,84.12
2019-03-22T10:34:39.736Z,83.61
2019-03-22T10:35:37.405Z,83.61
2019-03-22T10:36:37.453Z,83.37
2019-03-22T10:37:37.387Z,82.96
2019-03-22T10:38:37.378Z,83.41
2019-03-22T10:39:37.355Z,83.82
2019-03-22T10:40:37.361Z,84.06
2019-03-22T10:41:37.329Z,85.13
2019-03-22T10:42:37.327Z,85.54
2019-03-22T10:43:37.311Z,85.85
2019-03-22T10:44:39.397Z,85.85
2019-03-22T10:45:37.293Z,84.88
2019-03-22T10:46:37.271Z,85.03
2019-03-22T10:47:37.276Z,84.92
2019-03-22T10:48:37.256Z,85.39
2019-03-22T10:49:37.291Z,85.09
2019-03-22T10:50:37.375Z,85.30
2019-03-22T10:51:37.237Z,84.23
2019-03-22T10:52:37.210Z,84.03
2019-03-22T10:53:37.230Z,84.03
2019-03-22T10:54:37.187Z,83.61
2019-03-22T10:55:37.174Z,83.82
2019-03-22T10:56:37.170Z,84.12
2019-03-22T10:57:40.054Z,84.12
2019-03-22T10:58:37.143Z,83.72
2019-03-22T10:59:37.134Z,83.92
2019-03-22T11:00:37.128Z,83.92
2019-03-22T11:01:48.244Z,83.78
2019-03-22T11:02:38.097Z,83.72
2019-03-22T11:03:37.257Z,83.06
2019-03-22T11:04:37.073Z,82.79
2019-03-22T11:05:37.080Z,82.59
2019-03-22T11:06:37.063Z,83.61
2019-03-22T11:07:37.055Z,83.92
2019-03-22T11:08:37.032Z,84.17
2019-03-22T11:09:37.021Z,83.41
2019-03-22T11:10:37.004Z,84.12
2019-03-22T11:11:37.005Z,84.23
2019-03-22T11:12:37.011Z,83.17
2019-03-22T11:13:36.978Z,83.10
2019-03-22T11:14:36.968Z,83.10
2019-03-22T12:04:35.490Z,81.79
2019-03-22T12:05:40.346Z,81.45
2019-03-22T12:06:36.451Z,81.35
2019-03-22T12:07:35.432Z,80.43
2019-03-22T12:08:35.459Z,80.22
2019-03-22T12:09:35.582Z,80.19
2019-03-22T12:10:35.444Z,80.29
2019-03-22T12:11:35.390Z,79.06
2019-03-22T12:12:35.383Z,79.27
2019-03-22T12:13:35.371Z,79.16
2019-03-22T12:14:35.376Z,78.75
2019-03-22T12:15:35.346Z,79.06
2019-03-22T12:16:35.335Z,79.30
2019-03-22T12:17:35.328Z,79.82
2019-03-22T12:18:35.325Z,80.53
2019-03-22T12:19:35.322Z,80.43
2019-03-22T12:20:35.294Z,80.43
2019-03-22T12:21:35.288Z,80.22
2019-03-22T12:22:35.294Z,80.33
2019-03-22T12:23:35.271Z,80.60
2019-03-22T12:24:35.251Z,79.16
2019-03-22T12:25:35.241Z,79.37
2019-03-22T12:26:35.225Z,80.39
2019-03-22T12:27:36.761Z,80.60
2019-03-22T12:28:35.236Z,79.02
2019-03-22T12:29:35.200Z,78.61
2019-03-22T12:30:35.188Z,78.61
2019-03-22T12:31:35.174Z,78.61
2019-03-22T12:32:35.166Z,78.75
2019-03-22T12:33:35.156Z,78.45
2019-03-22T12:34:35.247Z,79.71
2019-03-22T12:35:35.154Z,79.20
2019-03-22T12:36:35.128Z,80.33
2019-03-22T12:37:35.114Z,80.12
2019-03-22T12:38:35.099Z,80.22
2019-03-22T12:39:35.092Z,80.39
2019-03-22T12:40:35.096Z,79.16
2019-03-22T12:41:35.074Z,79.02
2019-03-22T12:42:35.064Z,78.52
2019-03-22T12:43:35.058Z,77.86
2019-03-22T12:44:35.040Z,77.45
2019-03-22T12:45:35.063Z,77.04
2019-03-22T12:46:35.018Z,76.94
2019-03-22T12:47:35.005Z,76.84
2019-03-22T12:48:34.994Z,77.45
2019-03-22T12:49:34.983Z,77.04
2019-03-22T12:50:34.988Z,77.15
2019-03-22T12:51:34.958Z,77.31
2019-03-22T12:52:34.944Z,77.04
2019-03-22T12:53:34.942Z,77.31
2019-03-22T12:54:34.926Z,77.42
2019-03-22T12:55:34.912Z,76.09
2019-03-22T12:56:34.920Z,76.90
2019-03-22T12:57:34.898Z,76.50
2019-03-22T12:58:34.883Z,76.64
2019-03-22T12:59:34.877Z,77.35
2019-03-22T13:00:34.853Z,77.08
2019-03-22T13:01:34.851Z,78.24
2019-03-22T13:02:42.054Z,78.61
2019-03-22T13:03:35.819Z,78.55
2019-03-22T13:04:34.807Z,78.55
2019-03-22T13:05:34.796Z,79.27
2019-03-22T13:06:34.824Z,78.24
2019-03-22T13:07:34.782Z,78.75
2019-03-22T13:08:34.768Z,78.96
2019-03-22T13:09:34.760Z,79.16
2019-03-22T13:10:34.745Z,78.86
2019-03-22T13:11:34.734Z,79.06
2019-03-22T13:12:34.729Z,79.02
2019-03-22T13:13:34.721Z,78.52
2019-03-22T13:14:34.697Z,79.23
2019-03-22T13:15:34.688Z,78.55
2019-03-22T13:16:34.677Z,79.30
2019-03-22T13:17:34.675Z,79.30
2019-03-22T13:18:34.670Z,80.63
2019-03-22T13:19:34.650Z,80.22
2019-03-22T13:20:34.637Z,79.50
2019-03-22T13:21:34.630Z,80.60
2019-03-22T13:22:34.616Z,78.38
2019-03-22T13:23:34.611Z,79.30
2019-03-22T13:24:34.605Z,79.71
2019-03-22T13:25:34.580Z,80.74
2019-03-22T13:26:34.576Z,79.20
2019-03-22T13:27:34.560Z,79.71
2019-03-22T13:28:34.619Z,79.85
2019-03-22T13:29:34.537Z,79.30
2019-03-22T13:30:34.542Z,79.16
2019-03-22T13:31:34.517Z,78.65
2019-03-22T13:32:34.503Z,79.10
2019-03-22T13:33:34.496Z,80.43
2019-03-22T13:34:34.523Z,80.57
2019-03-22T13:35:34.476Z,80.46
2019-03-22T13:36:34.460Z,80.88
2019-03-22T13:37:34.453Z,80.43
2019-03-22T13:38:34.443Z,79.20
2019-03-22T13:39:34.444Z,79.10
2019-03-22T13:40:34.421Z,79.10
2019-03-22T13:41:34.405Z,79.20